Terminal Aerodrome Forecast
Issued by NWS

Home | Current Version | Previous Version | Text Only | Print | Product List | Glossary On
Versions: 1 2 3 4 5 6 7 8 9 10 11 12 13 14 15 16 17
000
FTUS43 KMQT 231140
TAFIWD
TAF
KIWD 231140Z 2312/2412 01012G19KT 4SM -FZDZSN OVC003
     FM231400 01011G18KT 4SM -FZDZSN BKN005
     FM231700 36010KT P6SM BKN008
     FM232100 35008KT P6SM SCT008
     FM232300 36005KT P6SM SCT120
     FM240400 00000KT P6SM BKN150=

USA.gov is the U.S. government's official web portal to all federal, state and local government web resources and services.